Time;durP1;ratioP1;P1;durP2;ratioP2;P2;SDS_P1;SDS_P2;PMS_P1;PMS_P2;Temp;Humidity;BMP_temperature;BMP_pressure;BME280_temperature;BME280_humidity;BME280_pressure;Samples;Min_cycle;Max_cycle;Signal;HPM_P1;HPM_P2
2022/11/14 00:02:17;;;;;;;31.95;21.73;;;;;;;6.86;100.00;101582.53;5092551;28;20078;-71
2022/11/14 00:04:47;;;;;;;31.25;20.25;;;;;;;6.86;100.00;101579.84;5099681;28;20236;-71
2022/11/14 00:07:13;;;;;;;28.63;20.55;;;;;;;6.87;100.00;101578.06;5098494;28;21000;-71
2022/11/14 00:09:41;;;;;;;28.10;20.60;;;;;;;6.84;100.00;101580.88;5099776;28;20057;-71
2022/11/14 00:12:11;;;;;;;31.92;19.98;;;;;;;6.83;100.00;101580.00;5093828;28;20671;-71
2022/11/14 00:14:37;;;;;;;31.48;21.45;;;;;;;6.83;100.00;101576.47;5096591;28;20039;-71
2022/11/14 00:17:03;;;;;;;29.80;20.95;;;;;;;6.78;100.00;101568.72;5098606;28;20023;-71
2022/11/14 00:19:29;;;;;;;36.42;22.73;;;;;;;6.83;100.00;101574.69;5101014;28;20380;-70
2022/11/14 00:21:55;;;;;;;43.38;22.92;;;;;;;6.76;100.00;101573.28;5096458;28;20036;-70
2022/11/14 00:24:20;;;;;;;30.58;21.92;;;;;;;6.80;100.00;101581.97;5096542;28;20035;-71
2022/11/14 00:26:46;;;;;;;32.30;22.50;;;;;;;6.82;100.00;101585.41;5096256;28;20469;-71
2022/11/14 00:29:13;;;;;;;33.55;22.02;;;;;;;6.80;100.00;101574.84;5095144;28;21482;-71
2022/11/14 00:31:39;;;;;;;34.20;21.85;;;;;;;6.81;100.00;101587.22;5091374;28;20028;-66
2022/11/14 00:34:05;;;;;;;30.20;21.52;;;;;;;6.81;100.00;101581.88;5087879;28;20047;-70
2022/11/14 00:36:30;;;;;;;32.88;22.00;;;;;;;6.81;100.00;101587.22;5102571;28;20065;-71
2022/11/14 00:38:56;;;;;;;28.83;20.83;;;;;;;6.78;100.00;101587.38;5099845;28;20054;-71
2022/11/14 00:41:22;;;;;;;33.25;23.48;;;;;;;6.78;100.00;101578.53;5096976;28;20031;-71
2022/11/14 00:43:47;;;;;;;33.05;21.35;;;;;;;6.82;100.00;101585.41;5094322;28;20060;-72
2022/11/14 00:46:13;;;;;;;29.55;20.80;;;;;;;6.85;100.00;101587.94;5098669;28;20043;-72
2022/11/14 00:48:38;;;;;;;34.15;21.25;;;;;;;6.76;100.00;101573.28;5095475;28;20036;-72
2022/11/14 00:51:04;;;;;;;30.63;20.92;;;;;;;6.80;100.00;101589.97;5096260;28;20019;-70
2022/11/14 00:53:30;;;;;;;36.35;21.75;;;;;;;6.79;100.00;101591.78;5103431;28;20023;-71
2022/11/14 00:55:55;;;;;;;36.47;20.75;;;;;;;6.79;100.00;101588.25;5093531;28;20058;-71
2022/11/14 00:58:21;;;;;;;36.90;20.83;;;;;;;6.81;100.00;101575.72;5104158;28;20035;-72
2022/11/14 01:00:47;;;;;;;29.60;20.35;;;;;;;6.79;100.00;101574.91;5098693;28;20459;-72
2022/11/14 01:03:13;;;;;;;34.90;20.08;;;;;;;6.77;100.00;101577.66;5103776;28;20028;-72
2022/11/14 01:05:47;;;;;;;34.50;19.15;;;;;;;6.77;100.00;101574.13;5102829;28;20085;-72
2022/11/14 01:08:14;;;;;;;29.48;18.95;;;;;;;6.78;100.00;101570.53;5093374;28;20109;-72
2022/11/14 01:10:41;;;;;;;38.00;19.60;;;;;;;6.72;100.00;101569.06;5100993;28;20043;-70
2022/11/14 01:13:08;;;;;;;32.70;19.60;;;;;;;6.68;100.00;101564.81;5098821;28;20027;-71
2022/11/14 01:15:38;;;;;;;28.02;18.02;;;;;;;6.69;100.00;101563.88;5108628;28;20440;-71
2022/11/14 01:18:04;;;;;;;39.70;19.85;;;;;;;6.68;100.00;101561.31;5105280;28;20031;-71
2022/11/14 01:20:29;;;;;;;26.70;19.33;;;;;;;6.65;100.00;101553.47;5101249;28;20026;-71
2022/11/14 01:22:54;;;;;;;29.52;19.65;;;;;;;6.66;100.00;101564.03;5108178;28;20149;-71
2022/11/14 01:25:20;;;;;;;31.80;19.85;;;;;;;6.63;100.00;101552.66;5099563;28;20016;-71
2022/11/14 01:27:45;;;;;;;27.13;19.23;;;;;;;6.65;100.00;101553.47;5102398;28;20028;-66
2022/11/14 01:30:11;;;;;;;29.40;20.17;;;;;;;6.67;100.00;101552.44;5089735;28;20032;-66
2022/11/14 01:32:37;;;;;;;34.50;19.08;;;;;;;6.61;100.00;101536.75;5089695;28;20030;-66
2022/11/14 01:35:02;;;;;;;35.88;20.75;;;;;;;6.60;100.00;101532.38;5090002;28;20028;-66
2022/11/14 01:37:28;;;;;;;31.42;21.42;;;;;;;6.60;100.00;101524.38;5100304;28;20039;-66
2022/11/14 01:39:53;;;;;;;35.28;20.35;;;;;;;6.65;100.00;101538.31;5101683;28;20183;-66
2022/11/14 01:42:19;;;;;;;25.90;19.00;;;;;;;6.61;100.00;101542.06;5105230;27;20400;-66
2022/11/14 01:44:51;;;;;;;30.77;20.10;;;;;;;6.61;100.00;101531.41;5092863;28;20062;-66
2022/11/14 01:47:22;;;;;;;27.73;18.88;;;;;;;6.59;100.00;101537.78;5099901;28;20138;-66
2022/11/14 01:49:52;;;;;;;27.73;19.60;;;;;;;6.52;100.00;101521.22;5103713;28;20109;-66
2022/11/14 01:52:26;;;;;;;29.92;19.60;;;;;;;6.56;100.00;101522.81;5100958;28;20085;-66
2022/11/14 01:54:54;;;;;;;34.97;18.88;;;;;;;6.56;100.00;101525.47;5092191;28;20027;-66
2022/11/14 01:57:28;;;;;;;27.05;18.55;;;;;;;6.63;100.00;101532.22;5093623;28;20043;-66
2022/11/14 01:59:56;;;;;;;;;;;;;;;6.61;100.00;101522.59;5103354;28;20055;-67
2022/11/14 02:02:24;;;;;;;34.70;18.00;;;;;;;6.50;100.00;101508.94;5100039;28;19912;-66
2022/11/14 02:04:55;;;;;;;29.77;19.08;;;;;;;6.57;100.00;101518.31;5101440;28;20122;-66
2022/11/14 02:07:23;;;;;;;53.72;19.65;;;;;;;6.44;100.00;101495.91;5095909;28;20043;-66
2022/11/14 02:09:48;;;;;;;38.47;19.92;;;;;;;6.49;100.00;101513.38;5096753;28;20499;-66
2022/11/14 02:12:16;;;;;;;24.20;17.65;;;;;;;6.48;100.00;101514.34;5096493;28;20066;-67
2022/11/14 02:14:46;;;;;;;27.13;17.70;;;;;;;6.45;100.00;101514.50;5101350;28;20016;-72
2022/11/14 02:17:13;;;;;;;29.50;17.70;;;;;;;6.40;100.00;101513.91;5097785;28;20027;-72
2022/11/14 02:19:54;;;;;;;28.63;19.45;;;;;;;6.39;100.00;101512.16;5102097;28;20024;-71
2022/11/14 02:22:19;;;;;;;31.00;19.00;;;;;;;6.36;100.00;101506.97;5092190;28;20502;-71
2022/11/14 02:24:45;;;;;;;45.72;19.35;;;;;;;6.37;100.00;101513.19;5099991;28;20038;-72
2022/11/14 02:27:13;;;;;;;26.50;19.30;;;;;;;6.34;100.00;101502.69;5097502;28;20050;-70
2022/11/14 02:29:38;;;;;;;32.92;18.77;;;;;;;6.36;100.00;101514.13;5090253;28;20143;-71
2022/11/14 02:32:04;;;;;;;28.00;18.98;;;;;;;6.31;100.00;101509.03;5101227;28;20116;-74
2022/11/14 02:34:30;;;;;;;28.20;19.63;;;;;;;6.26;100.00;101497.72;5103695;28;20110;-72
2022/11/14 02:36:56;;;;;;;28.75;20.15;;;;;;;6.28;100.00;101497.66;5100203;28;20031;-71
2022/11/14 02:39:22;;;;;;;35.95;20.63;;;;;;;6.37;100.00;101508.72;5104742;28;20135;-72
2022/11/14 02:41:49;;;;;;;33.17;20.15;;;;;;;6.35;100.00;101499.94;5096824;28;20074;-71
2022/11/14 02:44:14;;;;;;;32.72;20.70;;;;;;;6.37;100.00;101505.19;5093905;28;20023;-72
2022/11/14 02:46:40;;;;;;;29.52;19.85;;;;;;;6.32;100.00;101496.59;5106639;28;20063;-66
2022/11/14 02:49:05;;;;;;;31.38;19.25;;;;;;;6.34;100.00;101500.88;5092939;28;20032;-66
2022/11/14 02:51:31;;;;;;;39.55;19.70;;;;;;;6.31;100.00;101497.50;5100185;28;20074;-66
2022/11/14 02:53:56;;;;;;;33.33;20.98;;;;;;;6.34;100.00;101500.88;5103380;28;20016;-66
2022/11/14 02:56:22;;;;;;;29.00;20.08;;;;;;;6.33;100.00;101503.63;5098536;28;20041;-66
2022/11/14 02:58:47;;;;;;;41.35;20.05;;;;;;;6.28;100.00;101495.88;5103105;28;20038;-66
2022/11/14 03:01:13;;;;;;;29.88;21.17;;;;;;;6.26;100.00;101495.06;5096141;28;20089;-66
2022/11/14 03:03:38;;;;;;;37.38;21.25;;;;;;;6.28;100.00;101489.66;5094641;28;20088;-71
2022/11/14 03:06:04;;;;;;;36.60;21.75;;;;;;;6.31;100.00;101495.72;5100236;28;20023;-71
2022/11/14 03:08:29;;;;;;;42.63;21.60;;;;;;;6.30;100.00;101498.44;5100370;28;20051;-71
2022/11/14 03:10:55;;;;;;;39.10;21.67;;;;;;;6.28;100.00;101495.00;5101287;28;20032;-71
2022/11/14 03:13:21;;;;;;;29.60;20.88;;;;;;;6.23;100.00;101481.06;5103145;28;20023;-72
2022/11/14 03:15:46;;;;;;;33.10;22.10;;;;;;;6.28;100.00;101497.66;5097995;28;20466;-72
2022/11/14 03:18:12;;;;;;;32.47;20.75;;;;;;;6.27;100.00;101495.94;5102237;28;20035;-72
2022/11/14 03:20:38;;;;;;;33.45;21.95;;;;;;;6.30;100.00;101498.44;5095972;28;20019;-72
2022/11/14 03:23:04;;;;;;;32.58;20.67;;;;;;;6.30;100.00;101507.31;5098712;28;20475;-72
2022/11/14 03:25:30;;;;;;;30.33;19.58;;;;;;;6.15;100.00;101478.78;5099827;28;20031;-72
2022/11/14 03:27:55;;;;;;;30.50;20.77;;;;;;;6.27;100.00;101503.94;5096290;28;20051;-72
2022/11/14 03:30:20;;;;;;;28.85;20.20;;;;;;;6.19;100.00;101483.00;5100809;28;20099;-72
2022/11/14 03:32:46;;;;;;;31.35;19.67;;;;;;;6.27;100.00;101496.81;5098338;28;20031;-72
2022/11/14 03:35:11;;;;;;;32.75;19.70;;;;;;;6.27;100.00;101494.16;5098820;28;20036;-72
2022/11/14 03:37:37;;;;;;;34.80;20.25;;;;;;;6.23;100.00;101479.25;5098294;28;20054;-72
2022/11/14 03:40:03;;;;;;;25.80;18.20;;;;;;;6.21;100.00;101478.47;5096536;28;20067;-72
2022/11/14 03:42:33;;;;;;;28.20;18.60;;;;;;;6.24;100.00;101483.66;5095318;28;20061;-72
2022/11/14 03:44:59;;;;;;;27.40;19.30;;;;;;;6.21;100.00;101482.94;5096190;28;20023;-72
2022/11/14 03:47:24;;;;;;;27.08;18.05;;;;;;;6.22;100.00;101490.84;5099520;28;20044;-72
2022/11/14 03:49:49;;;;;;;27.13;19.25;;;;;;;6.16;100.00;101480.50;5091082;28;20013;-72
2022/11/14 03:52:15;;;;;;;23.98;17.67;;;;;;;6.21;100.00;101488.25;5097541;28;20397;-72
2022/11/14 03:54:40;;;;;;;30.77;19.00;;;;;;;6.19;100.00;101492.81;5100875;28;21392;-72
2022/11/14 03:57:06;;;;;;;29.65;20.10;;;;;;;6.18;100.00;101493.75;5095761;28;20115;-72
2022/11/14 03:59:31;;;;;;;37.70;19.33;;;;;;;6.15;100.00;101483.25;5097166;28;20028;-72
2022/11/14 04:01:57;;;;;;;25.35;17.90;;;;;;;6.16;100.00;101477.84;5096925;28;20016;-72
2022/11/14 04:04:22;;;;;;;31.50;17.45;;;;;;;6.17;100.00;101484.91;5099529;28;20022;-72
2022/11/14 04:06:48;;;;;;;29.63;17.98;;;;;;;6.15;100.00;101481.44;5100289;28;20080;-72
2022/11/14 04:09:13;;;;;;;27.02;17.63;;;;;;;6.09;100.00;101463.13;5096284;28;20068;-72
2022/11/14 04:11:38;;;;;;;32.15;16.73;;;;;;;6.08;100.00;101466.72;5089913;28;20027;-72
2022/11/14 04:14:04;;;;;;;25.02;15.45;;;;;;;6.05;100.00;101464.22;5097510;28;20023;-72
2022/11/14 04:16:29;;;;;;;25.70;17.30;;;;;;;6.02;100.00;101464.38;5097541;28;20024;-72
2022/11/14 04:18:55;;;;;;;25.58;17.17;;;;;;;5.96;100.00;101459.34;5096201;28;20027;-72
2022/11/14 04:21:20;;;;;;;34.90;18.08;;;;;;;6.00;100.00;101468.06;5096764;28;20032;-72
2022/11/14 04:23:46;;;;;;;29.35;17.50;;;;;;;6.04;100.00;101469.63;5096426;28;20483;-72
2022/11/14 04:26:11;;;;;;;26.55;17.35;;;;;;;5.93;100.00;101453.34;5100717;28;20795;-72
2022/11/14 04:28:36;;;;;;;27.10;18.15;;;;;;;6.01;100.00;101464.44;5095225;28;20032;-66
2022/11/14 04:31:02;;;;;;;22.35;16.65;;;;;;;5.96;100.00;101456.69;5096070;28;20036;-66
2022/11/14 04:33:27;;;;;;;27.95;17.05;;;;;;;6.03;100.00;101467.91;5102619;28;20458;-67
2022/11/14 04:35:53;;;;;;;25.35;16.80;;;;;;;5.93;100.00;101464.84;5098827;28;20020;-67
2022/11/14 04:38:18;;;;;;;24.08;16.63;;;;;;;5.99;100.00;101472.53;5096193;28;20039;-66
2022/11/14 04:40:51;;;;;;;24.40;15.88;;;;;;;5.94;100.00;101466.56;5099956;28;20028;-66
2022/11/14 04:43:18;;;;;;;32.17;16.60;;;;;;;5.89;100.00;101465.94;5098388;28;20046;-66
2022/11/14 04:45:43;;;;;;;34.78;17.55;;;;;;;5.89;100.00;101457.06;5094811;28;20037;-72
2022/11/14 04:48:09;;;;;;;28.63;18.10;;;;;;;5.86;100.00;101455.44;5105571;28;20067;-72
2022/11/14 04:50:34;;;;;;;27.00;18.10;;;;;;;5.88;100.00;101463.34;5100965;28;20020;-72
2022/11/14 04:52:59;;;;;;;32.25;16.92;;;;;;;5.84;100.00;101464.44;5098176;28;20020;-72
2022/11/14 04:55:25;;;;;;;24.77;17.42;;;;;;;5.78;100.00;101448.75;5097484;28;20032;-72
2022/11/14 04:57:55;;;;;;;24.48;17.60;;;;;;;5.85;100.00;101464.38;5104873;28;20081;-72
2022/11/14 05:00:22;;;;;;;25.58;18.65;;;;;;;5.85;100.00;101455.50;5095257;28;20026;-72
2022/11/14 05:02:47;;;;;;;25.08;17.55;;;;;;;5.86;100.00;101449.25;5100597;28;20106;-72
2022/11/14 05:05:13;;;;;;;27.30;19.05;;;;;;;5.89;100.00;101446.44;5099411;28;20034;-72
2022/11/14 05:07:38;;;;;;;26.52;18.27;;;;;;;5.91;100.00;101442.78;5103173;28;20479;-72
2022/11/14 05:10:04;;;;;;;29.38;18.98;;;;;;;5.87;100.00;101440.34;5099247;28;20506;-72
2022/11/14 05:12:30;;;;;;;29.58;19.48;;;;;;;5.89;100.00;101449.09;5106736;28;20031;-66
2022/11/14 05:14:56;;;;;;;25.00;16.50;;;;;;;5.87;100.00;101438.53;5101187;28;20372;-65
2022/11/14 05:17:21;;;;;;;29.08;18.73;;;;;;;5.85;100.00;101435.09;5097478;28;20032;-66
2022/11/14 05:19:47;;;;;;;28.13;17.88;;;;;;;5.85;100.00;101440.41;5096637;28;20022;-66
2022/11/14 05:22:12;;;;;;;26.88;16.48;;;;;;;5.86;100.00;101443.91;5103366;28;20032;-66
2022/11/14 05:24:38;;;;;;;25.90;17.80;;;;;;;5.89;100.00;101449.09;5102427;28;20043;-66
2022/11/14 05:27:03;;;;;;;26.90;18.70;;;;;;;5.87;100.00;101446.50;5092901;28;20107;-66
2022/11/14 05:29:29;;;;;;;26.40;18.00;;;;;;;5.88;100.00;101455.38;5091568;28;20560;-66
2022/11/14 05:31:54;;;;;;;25.48;17.40;;;;;;;5.87;100.00;101446.50;5095060;28;20019;-66
2022/11/14 05:34:19;;;;;;;28.83;17.45;;;;;;;5.90;100.00;101456.16;5100124;28;20027;-66
2022/11/14 05:36:45;;;;;;;24.73;16.42;;;;;;;5.85;100.00;101443.06;5096170;27;20528;-66
2022/11/14 05:39:10;;;;;;;27.17;17.95;;;;;;;5.89;100.00;101452.63;5094637;28;20085;-66
2022/11/14 05:41:39;;;;;;;28.42;18.00;;;;;;;5.80;100.00;101442.41;5096024;28;20161;-66
2022/11/14 05:44:04;;;;;;;35.78;18.45;;;;;;;5.88;100.00;101450.03;5100696;28;20106;-66
2022/11/14 05:46:30;;;;;;;28.65;17.67;;;;;;;5.82;100.00;101439.69;5096720;28;20154;-66
2022/11/14 05:48:55;;;;;;;26.77;17.85;;;;;;;5.90;100.00;101457.00;5104582;28;20023;-66
2022/11/14 05:51:21;;;;;;;29.80;19.33;;;;;;;5.87;100.00;101451.81;5101214;28;20035;-66
2022/11/14 05:53:46;;;;;;;27.83;18.67;;;;;;;5.91;100.00;101457.88;5094202;28;20515;-66
2022/11/14 05:56:12;;;;;;;28.30;20.65;;;;;;;5.86;100.00;101450.13;5094329;28;20039;-66
2022/11/14 05:58:38;;;;;;;30.13;19.65;;;;;;;5.90;100.00;101454.34;5099544;28;20071;-67
2022/11/14 06:01:10;;;;;;;29.85;20.13;;;;;;;5.93;100.00;101464.84;5103452;28;20100;-66
2022/11/14 06:03:38;;;;;;;37.20;20.60;;;;;;;5.85;100.00;101453.72;5091615;28;20157;-66
2022/11/14 06:06:06;;;;;;;33.60;20.48;;;;;;;5.89;100.00;101463.28;5101578;28;20107;-66
2022/11/14 06:08:32;;;;;;;34.45;21.63;;;;;;;5.88;100.00;101461.56;5087723;28;20521;-65
2022/11/14 06:11:03;;;;;;;28.92;19.85;;;;;;;5.96;100.00;101467.34;5087316;28;20020;-66
2022/11/14 06:13:29;;;;;;;32.70;21.77;;;;;;;5.93;100.00;101470.16;5101662;27;20030;-66
2022/11/14 06:16:03;;;;;;;36.05;22.52;;;;;;;5.94;100.00;101471.03;5097314;28;20537;-66
2022/11/14 06:18:30;;;;;;;32.40;21.75;;;;;;;5.91;100.00;101456.09;5090365;28;20078;-66
2022/11/14 06:21:00;;;;;;;30.20;20.25;;;;;;;6.01;100.00;101470.66;5086630;28;20143;-66
2022/11/14 06:23:26;;;;;;;31.33;19.90;;;;;;;6.04;100.00;101473.16;5090834;28;20031;-66
2022/11/14 06:25:51;;;;;;;35.47;24.23;;;;;;;6.02;100.00;101464.38;5103311;28;20055;-67
2022/11/14 06:28:16;;;;;;;40.08;24.70;;;;;;;6.00;100.00;101465.41;5100381;28;20040;-72
2022/11/14 06:30:42;;;;;;;39.53;26.60;;;;;;;6.11;100.00;101492.34;5095078;28;20035;-72
2022/11/14 06:33:07;;;;;;;35.35;23.52;;;;;;;6.12;100.00;101481.59;5096428;28;20374;-72
2022/11/14 06:35:34;;;;;;;33.67;22.63;;;;;;;6.12;100.00;101473.63;5101902;28;20079;-72
2022/11/14 06:37:59;;;;;;;34.22;23.33;;;;;;;6.16;100.00;101482.31;5097801;28;20406;-71
2022/11/14 06:40:25;;;;;;;38.28;24.88;;;;;;;6.20;100.00;101478.56;5102352;28;20012;-72
2022/11/14 06:42:50;;;;;;;40.80;23.90;;;;;;;6.17;100.00;101474.25;5094049;28;20027;-72
2022/11/14 06:45:16;;;;;;;35.90;23.92;;;;;;;6.26;100.00;101489.75;5091378;28;20790;-72
2022/11/14 06:47:41;;;;;;;39.63;25.13;;;;;;;6.28;100.00;101493.19;5096913;28;20730;-73
2022/11/14 06:50:07;;;;;;;35.90;23.50;;;;;;;6.31;100.00;101487.72;5098803;28;20023;-66
2022/11/14 06:52:32;;;;;;;34.60;23.88;;;;;;;6.36;100.00;101490.16;5101243;28;20032;-66
2022/11/14 06:54:58;;;;;;;38.42;23.40;;;;;;;6.27;100.00;101479.97;5097442;28;20028;-66
2022/11/14 06:57:23;;;;;;;35.45;23.95;;;;;;;6.33;100.00;101480.53;5097821;28;20136;-65
2022/11/14 06:59:49;;;;;;;37.95;24.77;;;;;;;6.42;100.00;101503.16;5091915;28;20028;-65
2022/11/14 07:02:14;;;;;;;34.05;22.90;;;;;;;6.41;100.00;101496.06;5097464;28;20024;-66
2022/11/14 07:04:39;;;;;;;36.65;24.35;;;;;;;6.42;100.00;101496.00;5102465;27;20074;-72
2022/11/14 07:07:05;;;;;;;34.53;22.65;;;;;;;6.47;100.00;101501.09;5101495;28;20314;-66
2022/11/14 07:09:31;;;;;;;38.03;24.42;;;;;;;6.42;100.00;101493.34;5107384;28;20564;-66
2022/11/14 07:11:56;;;;;;;34.20;22.17;;;;;;;6.50;100.00;101499.16;5095410;28;20027;-66
2022/11/14 07:14:21;;;;;;;35.50;23.13;;;;;;;6.51;100.00;101498.19;5092378;28;20032;-67
2022/11/14 07:16:47;;;;;;;37.40;23.98;;;;;;;6.57;100.00;101500.53;5095062;28;20096;-66
2022/11/14 07:19:12;;;;;;;35.03;23.20;;;;;;;6.55;100.00;101494.41;5094640;28;20043;-65
2022/11/14 07:21:38;;;;;;;38.25;23.50;;;;;;;6.63;100.00;101502.03;5095285;28;20039;-65
2022/11/14 07:24:04;;;;;;;35.58;21.85;;;;;;;6.63;100.00;101496.69;5098219;28;20031;-66
2022/11/14 07:26:29;;;;;;;31.42;21.25;;;;;;;6.67;100.00;101492.91;5097526;28;20156;-66
2022/11/14 07:28:55;;;;;;;37.72;21.17;;;;;;;6.63;100.00;101483.34;5100526;28;20061;-66
2022/11/14 07:31:21;;;;;;;35.00;22.67;;;;;;;6.66;100.00;101493.84;5097928;28;20520;-66
2022/11/14 07:33:47;;;;;;;39.95;22.52;;;;;;;6.65;100.00;101500.97;5101439;28;20478;-66
2022/11/14 07:36:14;;;;;;;35.05;20.35;;;;;;;6.67;100.00;101499.09;5104256;27;20032;-66
2022/11/14 07:38:40;;;;;;;31.45;20.27;;;;;;;6.65;100.00;101487.66;5084785;28;20120;-66
2022/11/14 07:41:11;;;;;;;34.28;21.65;;;;;;;6.66;100.00;101485.88;5095970;28;20024;-66
2022/11/14 07:43:37;;;;;;;30.73;20.02;;;;;;;6.65;100.00;101487.66;5090209;28;20023;-66
2022/11/14 07:46:10;;;;;;;31.30;20.55;;;;;;;6.73;100.00;101496.13;5105512;28;20382;-67
2022/11/14 07:48:36;;;;;;;32.72;20.50;;;;;;;6.73;100.00;101489.91;5093371;28;20130;-66
2022/11/14 07:51:04;;;;;;;36.08;23.38;;;;;;;6.74;100.00;101484.50;5096825;28;20421;-66
2022/11/14 07:53:32;;;;;;;36.40;22.70;;;;;;;6.78;100.00;101485.22;5092539;28;20433;-66
2022/11/14 07:56:02;;;;;;;40.55;24.90;;;;;;;6.70;100.00;101469.63;5089626;28;20068;-67
2022/11/14 07:58:28;;;;;;;43.13;23.38;;;;;;;6.85;100.00;101486.59;5091871;28;20039;-66
2022/11/14 08:00:53;;;;;;;37.25;22.90;;;;;;;6.84;100.00;101474.22;5104030;28;20034;-72
2022/11/14 08:03:19;;;;;;;32.15;21.17;;;;;;;6.80;100.00;101473.50;5098785;28;20034;-72
2022/11/14 08:05:44;;;;;;;38.33;22.30;;;;;;;6.86;100.00;101483.84;5101908;28;20024;-72
2022/11/14 08:08:10;;;;;;;36.85;23.20;;;;;;;6.85;100.00;101482.16;5091438;28;20046;-67
2022/11/14 08:10:35;;;;;;;35.00;23.08;;;;;;;6.85;100.00;101481.28;5106122;28;20455;-66
2022/11/14 08:13:04;;;;;;;40.83;22.50;;;;;;;6.88;100.00;101481.97;5085126;28;20024;-67
2022/11/14 08:15:30;;;;;;;35.45;22.67;;;;;;;6.95;100.00;101487.81;5091779;28;20105;-66
2022/11/14 08:18:00;;;;;;;37.97;24.42;;;;;;;6.90;100.00;101473.88;5093902;28;20032;-67
2022/11/14 08:20:26;;;;;;;37.53;23.88;;;;;;;6.98;100.00;101477.88;5095423;28;20024;-66
2022/11/14 08:23:11;;;;;;;33.60;23.20;;;;;;;7.02;100.00;101475.03;5089612;28;20058;-66
2022/11/14 08:25:36;;;;;;;38.42;23.95;;;;;;;7.03;100.00;101473.13;5091780;28;20031;-67
2022/11/14 08:28:02;;;;;;;35.00;23.25;;;;;;;7.03;100.00;101474.91;5085989;28;20807;-67
2022/11/14 08:30:27;;;;;;;33.03;23.13;;;;;;;7.07;100.00;101480.00;5101449;28;20022;-66
2022/11/14 08:32:53;;;;;;;33.92;22.75;;;;;;;7.11;100.00;101482.50;5091251;28;20253;-66
2022/11/14 08:35:18;;;;;;;33.80;22.67;;;;;;;7.15;100.00;101474.25;5094335;28;20024;-66
2022/11/14 08:37:44;;;;;;;33.80;23.60;;;;;;;7.15;100.00;101473.41;5103580;28;20036;-67
2022/11/14 08:40:10;;;;;;;33.22;21.88;;;;;;;7.11;100.00;101469.16;5103438;28;20031;-66
2022/11/14 08:42:36;;;;;;;34.72;21.65;;;;;;;7.19;100.00;101474.97;5092770;28;20081;-66
2022/11/14 08:45:02;;;;;;;40.42;22.60;;;;;;;7.17;100.00;101472.38;5098784;28;20500;-67
2022/11/14 08:47:27;;;;;;;38.10;22.50;;;;;;;7.17;100.00;101460.81;5088768;28;20067;-66
2022/11/14 08:49:52;;;;;;;31.60;21.33;;;;;;;7.19;100.00;101461.63;5098042;28;20135;-66
2022/11/14 08:52:18;;;;;;;37.10;22.77;;;;;;;7.19;100.00;101459.78;5100809;28;20039;-73
2022/11/14 08:54:43;;;;;;;33.75;23.00;;;;;;;7.23;100.00;101469.38;5100252;28;20027;-73
2022/11/14 08:57:10;;;;;;;34.15;21.98;;;;;;;7.21;100.00;101457.03;5099069;28;20026;-72
2022/11/14 08:59:36;;;;;;;34.10;22.38;;;;;;;7.27;100.00;101462.91;5093950;28;20098;-73
2022/11/14 09:02:01;;;;;;;35.83;23.80;;;;;;;7.24;100.00;101451.53;5096473;28;20178;-73
2022/11/14 09:04:27;;;;;;;35.15;23.13;;;;;;;7.28;100.00;101450.44;5089241;28;20066;-67
2022/11/14 09:06:52;;;;;;;37.33;22.98;;;;;;;7.30;100.00;101451.19;5088293;28;20161;-67
2022/11/14 09:09:18;;;;;;;34.92;22.88;;;;;;;7.37;100.00;101461.44;5089074;28;20039;-66
2022/11/14 09:11:43;;;;;;;34.50;23.02;;;;;;;7.22;100.00;101430.28;5095541;28;20032;-66
2022/11/14 09:14:09;;;;;;;36.28;23.75;;;;;;;7.33;100.00;101448.34;5092224;28;20076;-67
2022/11/14 09:16:34;;;;;;;35.22;23.75;;;;;;;7.41;100.00;101459.47;5089619;28;20023;-66
2022/11/14 09:19:00;;;;;;;33.70;22.30;;;;;;;7.45;100.00;101459.19;5103045;28;20054;-67
2022/11/14 09:21:26;;;;;;;33.22;21.80;;;;;;;7.47;100.00;101454.63;5093416;28;20111;-67
2022/11/14 09:23:51;;;;;;;30.23;20.80;;;;;;;7.32;100.00;101423.47;5105572;28;20114;-66
2022/11/14 09:26:19;;;;;;;32.47;22.10;;;;;;;7.51;100.00;101450.84;5099070;28;20505;-67
2022/11/14 09:28:45;;;;;;;33.83;22.02;;;;;;;7.44;100.00;101443.25;5097706;28;20054;-73
2022/11/14 09:31:12;;;;;;;30.83;20.55;;;;;;;7.52;100.00;101449.91;5102080;28;20076;-73
2022/11/14 09:33:37;;;;;;;29.58;20.45;;;;;;;7.60;100.00;101454.78;5102551;28;20028;-72
2022/11/14 09:36:09;;;;;;;31.52;21.58;;;;;;;7.61;100.00;101451.19;5097504;28;20089;-72
2022/11/14 09:38:35;;;;;;;30.77;20.90;;;;;;;7.63;100.00;101454.59;5097497;28;20083;-72
2022/11/14 09:41:19;;;;;;;31.90;21.92;;;;;;;7.69;100.00;101462.25;5092817;28;20019;-72
2022/11/14 09:44:11;;;;;;;30.75;21.65;;;;;;;7.65;100.00;101442.03;5102999;28;20586;-72
2022/11/14 09:46:43;;;;;;;34.40;23.10;;;;;;;7.75;100.00;101444.09;5105758;28;20056;-72
2022/11/14 09:49:29;;;;;;;35.55;21.63;;;;;;;7.76;100.00;101440.47;5101302;28;20474;-72
2022/11/14 09:52:02;;;;;;;31.33;20.80;;;;;;;7.74;100.00;101430.81;5098548;28;20019;-72
2022/11/14 09:54:37;;;;;;;30.63;20.73;;;;;;;7.85;100.00;101437.25;5097987;28;20020;-72
2022/11/14 09:57:02;;;;;;;33.65;22.35;;;;;;;7.89;100.00;101429.91;5100570;28;20285;-72
2022/11/14 09:59:28;;;;;;;27.30;19.52;;;;;;;7.91;100.00;101423.53;5098672;28;20027;-72
2022/11/14 10:02:24;;;;;;;32.75;21.58;;;;;;;7.92;100.00;101421.72;5091917;28;20043;-72
2022/11/14 10:05:15;;;;;;;31.23;21.60;;;;;;;7.94;100.00;101417.16;5057546;28;20032;-72
2022/11/14 10:08:19;;;;;;;29.13;19.20;;;;;;;7.99;100.00;101415.91;5102473;28;20116;-72
2022/11/14 10:10:48;;;;;;;34.13;22.23;;;;;;;8.03;100.00;101425.47;5091526;28;20387;-72
2022/11/14 10:13:27;;;;;;;36.30;22.75;;;;;;;8.07;100.00;101418.13;5104179;28;20056;-72
2022/11/14 10:16:12;;;;;;;31.65;21.30;;;;;;;8.09;100.00;101413.56;5094957;28;20111;-72
2022/11/14 10:18:38;;;;;;;36.88;22.40;;;;;;;8.09;100.00;101405.56;5096351;28;20483;-72
2022/11/14 10:21:29;;;;;;;35.00;23.30;;;;;;;8.11;100.00;101403.63;5095532;28;20030;-72
2022/11/14 10:24:12;;;;;;;40.67;24.50;;;;;;;8.18;100.00;101408.53;5096581;28;20023;-67
2022/11/14 10:27:00;;;;;;;39.67;24.52;;;;;;;8.15;100.00;101387.34;5095087;28;20064;-66
2022/11/14 10:29:31;;;;;;;36.40;24.58;;;;;;;8.25;100.00;101401.88;5091965;28;20047;-67
2022/11/14 10:32:18;;;;;;;34.28;24.05;;;;;;;8.28;100.00;101395.47;5103101;28;20479;-67
2022/11/14 10:35:12;;;;;;;38.67;23.73;;;;;;;8.33;100.00;101390.72;5096066;28;20032;-67
2022/11/14 10:37:48;;;;;;;39.65;24.52;;;;;;;8.29;100.00;101374.00;5102816;28;20038;-67
2022/11/14 10:40:23;;;;;;;36.03;22.88;;;;;;;8.27;100.00;101373.25;5101812;28;20035;-67
2022/11/14 10:42:56;;;;;;;37.10;24.05;;;;;;;8.39;100.00;101385.00;5097399;28;20619;-72
2022/11/14 10:45:33;;;;;;;34.47;23.63;;;;;;;8.39;100.00;101371.63;5097376;28;20445;-72
2022/11/14 10:48:15;;;;;;;37.95;23.90;;;;;;;8.37;100.00;101370.88;5097315;28;20559;-72
2022/11/14 10:50:46;;;;;;;33.45;24.10;;;;;;;8.41;100.00;101369.72;5103231;28;20054;-72
2022/11/14 10:53:30;;;;;;;36.88;22.75;;;;;;;8.48;100.00;101374.59;5097420;28;20037;-73
2022/11/14 10:55:57;;;;;;;33.53;23.05;;;;;;;8.48;100.00;101371.06;5093436;28;20036;-72
2022/11/14 10:58:23;;;;;;;34.53;22.80;;;;;;;8.55;100.00;101370.56;5103239;28;20043;-72
2022/11/14 11:00:48;;;;;;;34.88;24.15;;;;;;;8.55;100.00;101359.03;5100531;28;20023;-72
2022/11/14 11:03:14;;;;;;;36.88;25.52;;;;;;;8.57;100.00;101351.75;5098270;28;20111;-72
2022/11/14 11:05:49;;;;;;;41.45;26.48;;;;;;;8.60;100.00;101351.56;5090147;28;20027;-72
2022/11/14 11:11:30;;;;;;;38.03;25.75;;;;;;;8.62;100.00;101341.66;5098081;28;20465;-66
2022/11/14 11:13:58;;;;;;;35.17;23.98;;;;;;;8.64;100.00;101339.75;5092721;28;20030;-72
2022/11/14 11:16:26;;;;;;;37.22;25.48;;;;;;;8.67;100.00;101344.88;5095563;28;20073;-72